createdAt,value
2023-01-04T00:00:00.793Z,98797.56
2023-01-04T00:02:28.608Z,98809.84
2023-01-04T00:04:55.546Z,98814.78
2023-01-04T00:07:22.520Z,98818.59
2023-01-04T00:09:49.359Z,98806.22
2023-01-04T00:12:16.308Z,98820.75
2023-01-04T00:14:43.259Z,98815.91
2023-01-04T00:17:10.161Z,98818.31
2023-01-04T00:19:37.118Z,98813.94
2023-01-04T00:22:04.174Z,98826.59
2023-01-04T00:24:31.101Z,98825.31
2023-01-04T00:26:58.001Z,98824.22
2023-01-04T00:29:24.952Z,98831.25
2023-01-04T00:31:52.407Z,98839.19
2023-01-04T00:34:19.443Z,98834.06
2023-01-04T00:36:47.131Z,98838.91
2023-01-04T00:39:16.195Z,98831.19
2023-01-04T00:42:02.423Z,98832.41
2023-01-04T00:44:30.430Z,98833.63
2023-01-04T00:46:58.830Z,98839.25
2023-01-04T00:49:26.579Z,98847.38
2023-01-04T00:51:53.632Z,98842.81
2023-01-04T00:54:20.844Z,98841.03
2023-01-04T00:56:48.254Z,98839.44
2023-01-04T00:59:17.700Z,98836.72
2023-01-04T01:01:44.902Z,98841.56
2023-01-04T01:04:17.863Z,98840.47
2023-01-04T01:06:45.170Z,98838.81
2023-01-04T01:09:12.379Z,98837.13
2023-01-04T01:11:40.326Z,98838.41
2023-01-04T01:14:08.651Z,98838.66
2023-01-04T01:16:54.520Z,98844.91
2023-01-04T01:19:22.537Z,98835.16
2023-01-04T01:21:49.616Z,98840.84
2023-01-04T01:24:19.158Z,98832.34
2023-01-04T01:26:46.128Z,98839.13
2023-01-04T01:29:13.074Z,98837.50
2023-01-04T01:31:41.305Z,98837.88
2023-01-04T01:34:08.990Z,98842.63
2023-01-04T01:36:36.992Z,98832.69
2023-01-04T01:39:04.927Z,98847.06
2023-01-04T01:41:34.849Z,98839.91
2023-01-04T01:44:27.514Z,98845.91
2023-01-04T01:46:55.934Z,98846.28
2023-01-04T01:49:38.283Z,98846.34
2023-01-04T01:52:21.527Z,98847.19
2023-01-04T01:54:57.123Z,98844.22
2023-01-04T01:57:28.390Z,98851.53
2023-01-04T01:59:58.420Z,98848.09
2023-01-04T02:02:25.630Z,98855.91
2023-01-04T02:04:55.671Z,98852.38
2023-01-04T02:07:26.827Z,98860.34
2023-01-04T02:09:55.233Z,98851.19
2023-01-04T02:12:22.170Z,98857.75
2023-01-04T02:14:51.564Z,98849.34
2023-01-04T02:17:47.089Z,98861.59
2023-01-04T02:20:30.771Z,98856.75
2023-01-04T02:23:24.551Z,98861.59
2023-01-04T02:26:00.542Z,98859.50
2023-01-04T02:29:12.946Z,98862.28
2023-01-04T02:31:52.052Z,98862.78
2023-01-04T02:35:04.186Z,98863.50
2023-01-04T02:37:46.541Z,98861.78
2023-01-04T02:41:04.511Z,98866.91
2023-01-04T02:43:57.712Z,98868.06
2023-01-04T02:46:54.127Z,98866.13
2023-01-04T02:49:39.427Z,98868.81
2023-01-04T02:52:06.276Z,98860.03
2023-01-04T02:54:33.977Z,98862.03
2023-01-04T02:57:26.521Z,98864.28
2023-01-04T03:00:23.990Z,98859.44
2023-01-04T03:03:22.120Z,98868.78
2023-01-04T03:06:16.819Z,98862.81
2023-01-04T03:09:08.498Z,98869.22
2023-01-04T03:12:18.202Z,98870.09
2023-01-04T03:14:52.131Z,98860.53
2023-01-04T03:17:22.921Z,98856.97
2023-01-04T03:19:56.809Z,98863.66
2023-01-04T03:22:49.107Z,98861.22
2023-01-04T03:25:38.876Z,98874.06
2023-01-04T03:28:26.538Z,98860.16
2023-01-04T03:31:30.718Z,98875.69
2023-01-04T03:34:16.856Z,98875.66
2023-01-04T03:36:52.311Z,98884.91
2023-01-04T03:39:48.300Z,98895.94
2023-01-04T03:42:41.003Z,98893.84
2023-01-04T03:45:38.077Z,98896.16
2023-01-04T03:48:31.952Z,98893.97
2023-01-04T03:51:05.002Z,98892.22
2023-01-04T03:53:38.202Z,98893.66
2023-01-04T03:56:08.760Z,98898.59
2023-01-04T03:58:36.846Z,98891.22
2023-01-04T04:01:05.739Z,98891.06
2023-01-04T04:03:51.426Z,98892.25
2023-01-04T04:06:36.885Z,98891.91
2023-01-04T04:09:04.768Z,98895.31
2023-01-04T04:11:31.884Z,98896.91
2023-01-04T04:14:00.237Z,98902.25
2023-01-04T04:16:27.883Z,98900.88
2023-01-04T04:18:55.369Z,98910.84
2023-01-04T04:21:22.938Z,98907.91
2023-01-04T04:23:49.869Z,98908.66
2023-01-04T04:26:17.272Z,98914.63
2023-01-04T04:28:44.718Z,98906.53
2023-01-04T04:31:12.165Z,98915.56
2023-01-04T04:33:40.245Z,98913.94
2023-01-04T04:36:08.779Z,98914.88
2023-01-04T04:38:36.207Z,98915.25
2023-01-04T04:41:26.197Z,98916.38
2023-01-04T04:43:54.040Z,98925.72
2023-01-04T04:46:21.538Z,98921.22
2023-01-04T04:48:48.533Z,98924.50
2023-01-04T04:51:15.495Z,98931.94
2023-01-04T04:53:43.038Z,98926.63
2023-01-04T04:56:10.643Z,98936.44
2023-01-04T04:58:38.406Z,98935.28
2023-01-04T05:01:06.423Z,98941.72
2023-01-04T05:03:33.875Z,98936.13
2023-01-04T05:06:01.663Z,98932.75
2023-01-04T05:08:28.902Z,98934.25
2023-01-04T05:10:55.751Z,98929.06
2023-01-04T05:13:22.828Z,98927.38
2023-01-04T05:15:51.255Z,98936.69
2023-01-04T05:18:21.465Z,98934.94
2023-01-04T05:20:48.823Z,98928.59
2023-01-04T05:23:18.676Z,98933.97
2023-01-04T05:25:45.916Z,98932.13
2023-01-04T05:28:12.903Z,98932.22
2023-01-04T05:30:52.531Z,98928.47
2023-01-04T05:33:31.990Z,98923.63
2023-01-04T05:36:01.944Z,98926.16
2023-01-04T05:38:29.978Z,98924.41
2023-01-04T05:40:57.167Z,98921.03
2023-01-04T05:43:24.683Z,98929.78
2023-01-04T05:45:54.169Z,98927.44
2023-01-04T05:48:23.384Z,98924.78
2023-01-04T05:50:50.927Z,98922.16
2023-01-04T05:53:19.056Z,98941.25
2023-01-04T05:55:48.136Z,98935.00
2023-01-04T05:58:15.521Z,98927.75
2023-01-04T06:00:42.435Z,98920.28
2023-01-04T06:03:09.456Z,98921.41
2023-01-04T06:05:36.487Z,98918.53
2023-01-04T06:08:03.439Z,98926.34
2023-01-04T06:10:30.398Z,98937.91
2023-01-04T06:12:57.400Z,98946.13
2023-01-04T06:15:24.443Z,98943.88
2023-01-04T06:17:51.358Z,98955.53
2023-01-04T06:20:18.399Z,98960.41
2023-01-04T06:22:45.314Z,98966.28
2023-01-04T06:25:12.272Z,98975.13
2023-01-04T06:27:39.262Z,98984.44
2023-01-04T06:30:06.726Z,98981.47
2023-01-04T06:32:33.754Z,98987.44
2023-01-04T06:35:00.677Z,98989.66
2023-01-04T06:37:27.879Z,98993.28
2023-01-04T06:39:54.751Z,98995.84
2023-01-04T06:42:40.243Z,99002.00
2023-01-04T06:45:07.587Z,99008.72
2023-01-04T06:47:34.616Z,99009.44
2023-01-04T06:50:01.536Z,99014.94
2023-01-04T06:52:28.540Z,99013.88
2023-01-04T06:54:55.591Z,99016.94
2023-01-04T06:57:22.576Z,99017.31
2023-01-04T06:59:49.486Z,99023.56
2023-01-04T07:02:17.164Z,99024.06
2023-01-04T07:04:44.381Z,99020.31
2023-01-04T07:07:11.622Z,99021.03
2023-01-04T07:09:39.357Z,99026.28
2023-01-04T07:12:06.528Z,99021.41
2023-01-04T07:14:33.464Z,99026.41
2023-01-04T07:17:00.445Z,99031.47
2023-01-04T07:19:27.505Z,99038.69
2023-01-04T07:21:54.465Z,99031.66
2023-01-04T07:24:26.333Z,99033.25
2023-01-04T07:26:57.106Z,99023.88
2023-01-04T07:29:24.027Z,99028.72
2023-01-04T07:31:52.166Z,99013.22
2023-01-04T07:34:22.171Z,99030.63
2023-01-04T07:36:50.209Z,99033.44
2023-01-04T07:39:19.006Z,99041.28
2023-01-04T07:41:47.214Z,99043.00
2023-01-04T07:44:18.320Z,99051.69
2023-01-04T07:46:45.687Z,99049.38
2023-01-04T07:49:17.813Z,99042.91
2023-01-04T07:51:46.998Z,99036.53
2023-01-04T07:54:18.178Z,99057.13
2023-01-04T07:56:46.747Z,99048.97
2023-01-04T07:59:15.520Z,99063.59
2023-01-04T08:01:43.320Z,99060.16
2023-01-04T08:04:12.603Z,99057.78
2023-01-04T08:06:40.819Z,99058.94
2023-01-04T08:09:07.886Z,99055.09
2023-01-04T08:11:35.113Z,99046.47
2023-01-04T08:14:02.739Z,99052.13
2023-01-04T08:16:32.877Z,99047.63
2023-01-04T08:19:15.159Z,99048.06
2023-01-04T08:21:42.995Z,99053.19
2023-01-04T08:24:15.419Z,99050.97
2023-01-04T08:26:43.299Z,99048.97
2023-01-04T08:29:10.971Z,99053.91
2023-01-04T08:31:38.680Z,99064.25
2023-01-04T08:34:07.311Z,99064.91
2023-01-04T08:36:36.669Z,99072.34
2023-01-04T08:39:06.609Z,99073.28
2023-01-04T08:42:04.210Z,99072.69
2023-01-04T08:44:34.599Z,99081.69
2023-01-04T08:47:01.655Z,99087.63
2023-01-04T08:49:28.706Z,99079.91
2023-01-04T08:51:55.629Z,99089.41
2023-01-04T08:54:23.121Z,99085.25
2023-01-04T08:56:50.120Z,99080.44
2023-01-04T08:59:17.124Z,99070.66
2023-01-04T09:01:44.180Z,99080.31
2023-01-04T09:04:11.233Z,99075.91
2023-01-04T09:06:39.297Z,99073.47
2023-01-04T09:09:06.590Z,99074.84
2023-01-04T09:11:33.723Z,99071.81
2023-01-04T09:14:09.448Z,99070.56
2023-01-04T09:16:40.139Z,99069.41
2023-01-04T09:19:08.245Z,99065.19
2023-01-04T09:21:35.798Z,99067.94
2023-01-04T09:24:03.039Z,99068.66
2023-01-04T09:26:30.142Z,99064.25
2023-01-04T09:28:57.640Z,99054.31
2023-01-04T09:31:27.701Z,99054.44
2023-01-04T09:36:44.761Z,99052.13
2023-01-04T09:39:21.147Z,99056.00
2023-01-04T09:41:58.544Z,99062.09
2023-01-04T10:18:29.783Z,99046.44
2023-01-04T10:23:41.788Z,99060.81
2023-01-04T10:26:14.998Z,99057.25
2023-01-04T10:29:03.220Z,99055.56
2023-01-04T10:31:42.045Z,99063.94
2023-01-04T10:34:28.306Z,99053.06
2023-01-04T10:37:25.393Z,99055.31
2023-01-04T10:39:58.897Z,99051.22
2023-01-04T10:42:31.832Z,99051.69
2023-01-04T10:45:15.937Z,99058.78
2023-01-04T10:47:52.307Z,99052.50
2023-01-04T10:50:24.843Z,99053.66
2023-01-04T10:53:15.828Z,99043.72
2023-01-04T10:56:25.841Z,99041.94
2023-01-04T10:58:59.288Z,99042.66
2023-01-04T11:01:37.796Z,99045.22
2023-01-04T11:04:29.632Z,99040.16
2023-01-04T11:07:14.280Z,99041.22
2023-01-04T11:10:06.955Z,99031.59
2023-01-04T11:12:33.953Z,99040.88
2023-01-04T11:15:01.081Z,99045.22
2023-01-04T11:17:28.843Z,99043.19
2023-01-04T11:19:55.952Z,99057.00
2023-01-04T11:22:30.161Z,99039.63
2023-01-04T11:28:01.642Z,99037.00
2023-01-04T11:30:53.950Z,99038.69
2023-01-04T11:33:23.447Z,99047.03
2023-01-04T11:35:57.093Z,99044.44
2023-01-04T11:38:27.884Z,99039.09
2023-01-04T11:41:02.362Z,99034.81
2023-01-04T11:43:34.787Z,99028.63
2023-01-04T11:46:06.512Z,99035.44
2023-01-04T11:48:37.386Z,99036.00
2023-01-04T11:51:05.746Z,99038.38
2023-01-04T11:53:37.622Z,99034.63
2023-01-04T11:56:18.427Z,99040.81
2023-01-04T11:59:04.835Z,99041.81
2023-01-04T12:01:35.235Z,99040.75
2023-01-04T12:04:02.897Z,99043.19
2023-01-04T12:06:42.231Z,99041.22
2023-01-04T12:09:15.331Z,99030.00
2023-01-04T12:11:47.164Z,99036.94
2023-01-04T12:14:19.054Z,99030.47
2023-01-04T12:17:15.073Z,99021.34
2023-01-04T12:19:44.615Z,99023.97
2023-01-04T12:22:38.326Z,99031.59
2023-01-04T12:25:19.961Z,99031.72
2023-01-04T12:27:51.786Z,99035.78
2023-01-04T12:30:39.076Z,99033.03
2023-01-04T12:33:30.821Z,99034.75
2023-01-04T12:36:12.663Z,99041.66
2023-01-04T12:38:54.607Z,99040.06
2023-01-04T12:42:00.660Z,99046.44
2023-01-04T12:44:37.250Z,99051.03
2023-01-04T12:47:47.407Z,99034.94
2023-01-04T12:50:20.693Z,99027.63
2023-01-04T12:55:44.681Z,99034.81
2023-01-04T12:58:57.998Z,99035.16
2023-01-04T13:01:27.057Z,99033.44
2023-01-04T13:04:04.254Z,99039.09
2023-01-04T13:06:37.731Z,99039.50
2023-01-04T13:09:16.849Z,99033.38
2023-01-04T13:12:09.033Z,99027.06
2023-01-04T13:14:51.085Z,99030.00
2023-01-04T13:17:23.511Z,99024.63
2023-01-04T13:19:51.137Z,99028.50
2023-01-04T13:22:28.607Z,99021.28
2023-01-04T13:24:58.626Z,99041.81
2023-01-04T13:27:26.730Z,99026.75
2023-01-04T13:29:53.928Z,99032.00
2023-01-04T13:32:27.057Z,99026.53
2023-01-04T13:34:55.822Z,99029.50
2023-01-04T13:37:33.020Z,99030.75
2023-01-04T13:40:25.096Z,99035.56
2023-01-04T13:43:15.352Z,99034.69
2023-01-04T13:45:48.511Z,99038.66
2023-01-04T13:48:19.456Z,99042.22
2023-01-04T13:51:00.007Z,99039.78
2023-01-04T13:53:29.408Z,99041.78
2023-01-04T13:56:02.205Z,99043.47
2023-01-04T13:58:32.100Z,99049.09
2023-01-04T14:01:01.392Z,99042.47
2023-01-04T14:03:36.862Z,99041.84
2023-01-04T14:06:26.686Z,99045.94
2023-01-04T14:08:55.581Z,99035.03
2023-01-04T14:11:54.317Z,99043.06
2023-01-04T14:14:35.535Z,99038.91
2023-01-04T14:17:25.571Z,99052.91
2023-01-04T14:19:58.506Z,99042.13
2023-01-04T14:22:39.583Z,99043.72
2023-01-04T14:25:34.382Z,99049.47
2023-01-04T14:28:27.496Z,99050.22
2023-01-04T14:31:17.670Z,99054.59
2023-01-04T14:33:48.317Z,99044.38
2023-01-04T14:36:29.241Z,99052.22
2023-01-04T14:39:07.889Z,99064.91
2023-01-04T14:41:35.003Z,99063.34
2023-01-04T14:44:07.699Z,99065.84
2023-01-04T14:46:34.627Z,99061.06
2023-01-04T14:49:01.605Z,99054.91
2023-01-04T14:51:38.102Z,99052.03
2023-01-04T14:54:06.768Z,99049.44
2023-01-04T14:56:34.620Z,99055.22
2023-01-04T14:59:01.637Z,99055.72
2023-01-04T15:01:28.665Z,99059.91
2023-01-04T15:04:04.703Z,99062.34
2023-01-04T15:06:32.406Z,99061.97
2023-01-04T15:08:59.439Z,99060.91
2023-01-04T15:11:26.797Z,99071.28
2023-01-04T15:13:53.713Z,99073.97
2023-01-04T15:16:20.962Z,99065.88
2023-01-04T15:18:48.126Z,99075.59
2023-01-04T15:21:15.231Z,99071.69
2023-01-04T15:23:42.144Z,99076.13
2023-01-04T15:26:11.681Z,99075.94
2023-01-04T15:28:38.717Z,99075.53
2023-01-04T15:31:08.227Z,99080.81
2023-01-04T15:33:35.750Z,99073.19
2023-01-04T15:36:05.666Z,99076.50
2023-01-04T15:38:32.892Z,99079.69
2023-01-04T15:41:07.515Z,99089.78
2023-01-04T15:43:36.420Z,99081.38
2023-01-04T15:46:08.364Z,99088.28
2023-01-04T15:48:36.035Z,99092.19
2023-01-04T15:51:05.321Z,99082.47
2023-01-04T15:53:32.215Z,99084.72
2023-01-04T15:56:11.067Z,99091.00
2023-01-04T15:58:38.712Z,99085.28
2023-01-04T16:01:14.577Z,99088.00
2023-01-04T16:03:41.600Z,99087.16
2023-01-04T16:06:11.494Z,99088.47
2023-01-04T16:08:38.639Z,99089.75
2023-01-04T16:11:10.692Z,99100.78
2023-01-04T16:13:37.659Z,99098.72
2023-01-04T16:16:04.984Z,99091.09
2023-01-04T16:18:32.829Z,99097.44
2023-01-04T16:21:00.112Z,99091.63
2023-01-04T16:23:27.626Z,99090.69
2023-01-04T16:26:07.770Z,99093.59
2023-01-04T16:28:34.867Z,99100.50
2023-01-04T16:31:02.867Z,99105.25
2023-01-04T16:33:30.233Z,99102.75
2023-01-04T16:36:01.258Z,99102.09
2023-01-04T16:38:28.474Z,99105.81
2023-01-04T16:41:00.635Z,99104.34
2023-01-04T16:43:28.909Z,99106.75
2023-01-04T16:46:13.548Z,99105.81
2023-01-04T16:48:45.054Z,99096.03
2023-01-04T16:51:12.753Z,99103.97
2023-01-04T16:53:39.803Z,99101.63
2023-01-04T16:56:08.955Z,99102.94
2023-01-04T16:58:36.465Z,99106.38
2023-01-04T17:01:09.315Z,99104.88
2023-01-04T17:03:36.718Z,99100.09
2023-01-04T17:06:28.128Z,99103.25
2023-01-04T17:08:56.564Z,99095.94
2023-01-04T17:14:13.851Z,99100.16
2023-01-04T17:16:41.176Z,99101.19
2023-01-04T17:19:08.339Z,99104.84
2023-01-04T17:21:35.833Z,99100.44
2023-01-04T17:24:03.756Z,99108.72
2023-01-04T17:26:32.352Z,99102.28
2023-01-04T17:29:01.025Z,99099.19
2023-01-04T17:31:38.292Z,99087.66
2023-01-04T17:34:06.148Z,99096.50
2023-01-04T17:36:33.318Z,99095.56
2023-01-04T17:39:01.503Z,99097.78
2023-01-04T17:41:30.146Z,99093.81
2023-01-04T17:44:03.123Z,99096.06
2023-01-04T17:46:33.230Z,99091.94
2023-01-04T17:49:24.060Z,99087.00
2023-01-04T17:51:54.733Z,99077.66
2023-01-04T17:54:21.710Z,99085.91
2023-01-04T17:56:48.620Z,99082.88
2023-01-04T17:59:15.644Z,99082.50
2023-01-04T18:01:43.622Z,99084.72
2023-01-04T18:04:11.676Z,99080.09
2023-01-04T18:06:39.798Z,99079.06
2023-01-04T18:09:08.298Z,99075.88
2023-01-04T18:11:36.287Z,99083.38
2023-01-04T18:14:07.786Z,99095.16
2023-01-04T18:16:57.400Z,99087.53
2023-01-04T18:19:30.092Z,99080.84
2023-01-04T18:21:57.904Z,99073.69
2023-01-04T18:24:41.962Z,99075.03
2023-01-04T18:27:22.211Z,99070.09
2023-01-04T18:29:50.598Z,99067.88
2023-01-04T18:32:17.974Z,99070.72
2023-01-04T18:34:45.014Z,99061.34
2023-01-04T18:37:12.068Z,99064.91
2023-01-04T18:39:38.988Z,99066.56
2023-01-04T18:42:06.273Z,99066.78
2023-01-04T18:44:34.822Z,99072.59
2023-01-04T18:47:03.027Z,99072.75
2023-01-04T18:49:30.070Z,99070.41
2023-01-04T18:51:57.140Z,99075.53
2023-01-04T18:54:24.130Z,99067.69
2023-01-04T18:56:57.029Z,99067.59
2023-01-04T18:59:30.636Z,99072.59
2023-01-04T19:02:02.419Z,99075.66
2023-01-04T19:04:32.735Z,99076.28
2023-01-04T19:07:00.186Z,99068.78
2023-01-04T19:09:27.351Z,99063.78
2023-01-04T19:11:54.311Z,99064.03
2023-01-04T19:14:21.245Z,99054.63
2023-01-04T19:16:48.380Z,99055.00
2023-01-04T19:19:15.383Z,99054.06
2023-01-04T19:21:42.319Z,99057.81
2023-01-04T19:24:09.369Z,99050.94
2023-01-04T19:26:36.401Z,99040.13
2023-01-04T19:29:04.483Z,99040.63
2023-01-04T19:31:31.538Z,99039.44
2023-01-04T19:33:58.604Z,99038.22
2023-01-04T19:36:25.540Z,99040.09
2023-01-04T19:38:54.515Z,99044.88
2023-01-04T19:41:29.319Z,99040.72
2023-01-04T19:44:09.278Z,99027.94
2023-01-04T19:46:38.765Z,99021.47
2023-01-04T19:49:12.407Z,99023.66
2023-01-04T19:51:44.004Z,99022.38
2023-01-04T19:54:11.735Z,99017.84
2023-01-04T19:56:39.112Z,99018.97
2023-01-04T19:59:06.924Z,99021.06
2023-01-04T20:01:34.011Z,99025.38
2023-01-04T20:04:01.380Z,99026.50
2023-01-04T20:06:28.414Z,99024.97
2023-01-04T20:08:55.293Z,99026.81
2023-01-04T20:11:22.290Z,99023.41
2023-01-04T20:13:49.136Z,99022.03
2023-01-04T20:16:16.092Z,99015.84
2023-01-04T20:18:43.048Z,99015.41
2023-01-04T20:21:11.776Z,99021.28
2023-01-04T20:23:38.899Z,99019.41
2023-01-04T20:26:12.487Z,99017.22
2023-01-04T20:28:39.647Z,99022.69
2023-01-04T20:31:08.859Z,99024.84
2023-01-04T20:33:35.938Z,99024.44
2023-01-04T20:36:13.602Z,99014.72
2023-01-04T20:38:43.049Z,99013.56
2023-01-04T20:41:13.120Z,99012.41
2023-01-04T20:43:40.388Z,99008.75
2023-01-04T20:46:18.282Z,99001.94
2023-01-04T20:48:45.690Z,99006.41
2023-01-04T20:51:19.965Z,99012.75
2023-01-04T20:53:47.615Z,99003.78
2023-01-04T20:56:24.413Z,99001.94
2023-01-04T20:58:52.252Z,99001.63
2023-01-04T21:01:20.829Z,99009.13
2023-01-04T21:03:48.217Z,99004.69
2023-01-04T21:06:17.530Z,99000.25
2023-01-04T21:08:45.887Z,98992.97
2023-01-04T21:11:14.260Z,98989.44
2023-01-04T21:13:42.278Z,98995.44
2023-01-04T21:16:10.149Z,98991.69
2023-01-04T21:18:37.722Z,98993.38
2023-01-04T21:21:12.491Z,98988.66
2023-01-04T21:23:41.125Z,98994.31
2023-01-04T21:26:09.375Z,98981.72
2023-01-04T21:28:36.378Z,98979.63
2023-01-04T21:31:09.956Z,98974.91
2023-01-04T21:33:36.909Z,98980.84
2023-01-04T21:36:15.413Z,98978.41
2023-01-04T21:38:42.616Z,98974.34
2023-01-04T21:41:12.351Z,98973.13
2023-01-04T21:43:40.258Z,98965.59
2023-01-04T21:46:09.948Z,98965.00
2023-01-04T21:48:37.032Z,98953.06
2023-01-04T21:51:05.323Z,98953.47
2023-01-04T21:53:33.873Z,98949.66
2023-01-04T21:56:12.399Z,98943.81
2023-01-04T21:58:39.969Z,98940.66
2023-01-04T22:01:32.395Z,98933.72
2023-01-04T22:04:01.774Z,98936.06
2023-01-04T22:06:29.305Z,98935.06
2023-01-04T22:08:56.251Z,98934.44
2023-01-04T22:11:23.114Z,98926.88
2023-01-04T22:13:50.826Z,98928.97
2023-01-04T22:16:18.278Z,98924.13
2023-01-04T22:18:47.236Z,98919.13
2023-01-04T22:21:15.614Z,98912.09
2023-01-04T22:23:42.525Z,98911.97
2023-01-04T22:26:09.519Z,98900.75
2023-01-04T22:28:37.369Z,98896.72
2023-01-04T22:31:07.020Z,98897.53
2023-01-04T22:33:36.074Z,98894.47
2023-01-04T22:36:07.992Z,98885.38
2023-01-04T22:38:36.527Z,98885.25
2023-01-04T22:41:08.757Z,98879.31
2023-01-04T22:43:36.817Z,98885.78
2023-01-04T22:46:07.009Z,98881.38
2023-01-04T22:48:35.471Z,98865.41
2023-01-04T22:51:07.754Z,98872.31
2023-01-04T22:53:35.263Z,98868.97
2023-01-04T22:56:23.214Z,98867.06
2023-01-04T22:58:54.621Z,98864.03
2023-01-04T23:01:31.478Z,98860.13
2023-01-04T23:04:00.339Z,98848.44
2023-01-04T23:06:28.848Z,98862.13
2023-01-04T23:09:02.219Z,98851.78
2023-01-04T23:11:31.108Z,98856.28
2023-01-04T23:13:58.747Z,98854.84
2023-01-04T23:16:32.040Z,98850.56
2023-01-04T23:19:01.248Z,98840.63
2023-01-04T23:21:29.123Z,98841.88
2023-01-04T23:23:56.086Z,98828.88
2023-01-04T23:26:25.195Z,98828.69
2023-01-04T23:31:25.190Z,98824.59
2023-01-04T23:33:54.489Z,98828.34
2023-01-04T23:36:24.984Z,98821.69
2023-01-04T23:38:57.631Z,98816.06
2023-01-04T23:41:44.714Z,98816.47
2023-01-04T23:44:32.122Z,98814.16
2023-01-04T23:49:34.374Z,98804.13
2023-01-04T23:52:02.152Z,98806.22
2023-01-04T23:54:29.551Z,98799.53
2023-01-04T23:56:56.943Z,98809.22
2023-01-04T23:59:25.776Z,98810.19
